Time;durP1;ratioP1;P1;durP2;ratioP2;P2;SDS_P1;SDS_P2;PMS_P1;PMS_P2;Temp;Humidity;BMP_temperature;BMP_pressure;BME280_temperature;BME280_humidity;BME280_pressure;Samples;Min_cycle;Max_cycle;Signal;HPM_P1;HPM_P2
2023/02/22 00:05:01;;;;;;;12.30;4.50;;;;;;;1.43;80.95;99356.09;446424;1249;141618;-68
2023/02/22 00:15:08;;;;;;;13.10;4.10;;;;;;;1.26;81.66;99360.05;450783;1249;141989;-68
2023/02/22 00:25:16;;;;;;;13.10;4.50;;;;;;;1.38;82.62;99362.44;450045;1249;141440;-66
2023/02/22 00:35:23;;;;;;;10.00;4.10;;;;;;;1.60;82.53;99367.31;448107;1248;142715;-68
2023/02/22 00:45:31;;;;;;;13.00;4.80;;;;;;;1.51;82.38;99372.24;444775;1249;141128;-68
2023/02/22 00:55:39;;;;;;;12.90;5.00;;;;;;;1.33;82.98;99382.27;450136;1249;210539;-68
2023/02/22 01:05:45;;;;;;;16.60;4.80;;;;;;;1.27;83.24;99387.24;447477;1249;185311;-67
2023/02/22 01:15:51;;;;;;;11.60;4.60;;;;;;;1.12;83.72;99404.40;436272;1248;142011;-69
2023/02/22 01:25:57;;;;;;;15.70;5.30;;;;;;;1.07;84.64;99412.30;439388;1248;142818;-66
2023/02/22 01:36:10;;;;;;;10.10;3.90;;;;;;;1.22;85.89;99412.56;439519;1249;187390;-68
2023/02/22 01:46:24;;;;;;;14.70;4.20;;;;;;;1.43;86.16;99414.05;440430;1249;142295;-68
2023/02/22 01:56:34;;;;;;;11.10;3.90;;;;;;;1.53;86.53;99413.25;435983;1249;141661;-68
2023/02/22 02:06:41;;;;;;;11.50;4.50;;;;;;;1.56;86.45;99412.63;437640;1249;141842;-67
2023/02/22 02:16:46;;;;;;;;;;;;;;;1.41;86.41;99414.62;435740;1249;141764;-67
2023/02/22 02:27:10;;;;;;;10.40;4.80;;;;;;;1.17;86.64;99422.53;437920;1249;127978;-67
2023/02/22 02:37:27;;;;;;;16.20;6.00;;;;;;;1.09;87.91;99434.48;440317;1249;200547;-68
2023/02/22 02:47:37;;;;;;;18.00;6.20;;;;;;;1.12;88.37;99434.58;434345;1249;141829;-67
2023/02/22 02:57:42;;;;;;;12.90;5.20;;;;;;;1.11;88.67;99442.37;442893;1249;166335;-67
2023/02/22 03:07:59;;;;;;;13.80;5.70;;;;;;;1.18;88.77;99441.65;443199;1249;142033;-67
2023/02/22 03:18:09;;;;;;;21.00;6.40;;;;;;;1.07;88.39;99438.52;436507;1249;329469;-68
2023/02/22 03:28:18;;;;;;;14.60;5.80;;;;;;;0.84;88.47;99441.54;442123;1249;141464;-67
2023/02/22 03:38:28;;;;;;;17.10;8.20;;;;;;;0.86;89.47;99444.91;439128;1249;142335;-67
2023/02/22 03:48:39;;;;;;;29.50;15.40;;;;;;;1.11;91.07;99454.96;437877;1252;141739;-66
2023/02/22 03:58:49;;;;;;;24.90;12.00;;;;;;;1.24;91.41;99458.20;435627;1252;194759;-67
2023/02/22 04:08:55;;;;;;;17.30;10.20;;;;;;;1.31;91.75;99470.78;446118;1250;142524;-67
2023/02/22 04:19:01;;;;;;;11.40;7.10;;;;;;;1.31;91.84;99472.52;442991;1249;144063;-67
2023/02/22 04:29:07;;;;;;;21.60;7.40;;;;;;;1.24;91.38;99477.88;435191;1250;200251;-67
2023/02/22 04:39:13;;;;;;;21.30;10.50;;;;;;;0.97;91.63;99488.77;443042;1249;143176;-67
2023/02/22 04:49:19;;;;;;;17.50;8.50;;;;;;;0.98;92.49;99492.34;435624;1248;144156;-67
2023/02/22 04:59:25;;;;;;;23.70;9.90;;;;;;;1.11;92.70;99491.85;443059;1249;144750;-68
2023/02/22 05:09:31;;;;;;;32.70;12.30;;;;;;;1.07;92.54;99493.84;438464;1252;143159;-67
2023/02/22 05:19:37;;;;;;;17.00;8.10;;;;;;;0.68;92.47;99496.38;434884;1248;142370;-67
2023/02/22 05:29:43;;;;;;;17.90;10.10;;;;;;;0.19;92.75;99501.34;444459;1249;143427;-66
2023/02/22 05:39:49;;;;;;;22.20;9.00;;;;;;;-0.22;93.80;99517.70;439508;1252;143013;-68
2023/02/22 05:49:56;;;;;;;20.40;8.80;;;;;;;-0.49;94.96;99537.16;436990;1252;143081;-66
2023/02/22 06:00:04;;;;;;;15.40;8.10;;;;;;;-0.38;96.54;99549.83;434005;1252;143310;-67
2023/02/22 06:10:10;;;;;;;19.00;7.70;;;;;;;-0.20;96.45;99554.99;434077;1249;142172;-67
2023/02/22 06:20:18;;;;;;;22.40;8.80;;;;;;;-0.08;96.46;99564.23;444632;1250;142949;-68
2023/02/22 06:30:26;;;;;;;25.90;10.20;;;;;;;0.36;96.93;99573.27;434624;1252;143724;-68
2023/02/22 06:40:32;;;;;;;29.40;11.80;;;;;;;0.76;96.80;99580.64;446790;1250;141821;-68
2023/02/22 06:50:38;;;;;;;19.40;9.30;;;;;;;1.99;97.50;99583.77;447342;1249;142358;-67
2023/02/22 07:00:44;;;;;;;16.40;10.10;;;;;;;3.49;96.66;99590.77;443965;1252;143529;-68
2023/02/22 07:10:51;;;;;;;15.50;8.20;;;;;;;8.02;93.54;99584.42;436198;1249;144148;-67
2023/02/22 07:20:57;;;;;;;13.60;8.20;;;;;;;10.12;82.53;99596.83;451156;1249;142212;-66
2023/02/22 07:31:03;;;;;;;12.40;7.00;;;;;;;8.15;79.90;99613.11;445330;1249;142595;-68
2023/02/22 07:41:09;;;;;;;14.80;8.10;;;;;;;7.02;78.74;99616.80;450967;1249;143041;-67
2023/02/22 07:51:19;;;;;;;6.90;4.30;;;;;;;6.36;74.98;99617.79;450922;1249;146171;-67
2023/02/22 08:01:25;;;;;;;7.70;4.10;;;;;;;5.37;73.76;99620.98;450202;1249;142024;-67
2023/02/22 08:11:31;;;;;;;12.80;4.20;;;;;;;5.12;74.31;99621.86;451091;1248;146040;-66
2023/02/22 08:21:37;;;;;;;10.60;3.70;;;;;;;6.49;74.04;99623.53;451201;1249;142607;-67
2023/02/22 08:31:49;;;;;;;8.70;5.20;;;;;;;8.02;71.79;99623.06;450594;1249;210991;-67
2023/02/22 08:41:56;;;;;;;8.00;4.40;;;;;;;11.92;69.33;99620.06;451196;1249;142925;-66
2023/02/22 08:52:01;;;;;;;7.00;3.60;;;;;;;12.75;64.69;99621.35;450373;1250;142486;-67
2023/02/22 09:02:13;;;;;;;9.90;6.50;;;;;;;11.00;63.07;99626.10;451062;1248;144431;-67
2023/02/22 09:12:18;;;;;;;5.00;3.40;;;;;;;9.32;63.32;99634.84;451270;1249;142242;-68
2023/02/22 09:22:24;;;;;;;5.90;2.70;;;;;;;7.78;63.34;99642.08;449737;1251;141473;-66
2023/02/22 09:32:30;;;;;;;6.80;3.40;;;;;;;6.88;64.40;99640.42;447761;1248;141601;-66
2023/02/22 09:42:44;;;;;;;6.90;3.20;;;;;;;6.74;64.86;99639.19;451478;1248;141935;-67
2023/02/22 09:52:56;;;;;;;10.80;3.90;;;;;;;6.97;64.96;99641.91;451017;1248;194362;-67
2023/02/22 10:03:17;;;;;;;3.10;2.50;;;;;;;7.21;64.19;99645.81;451278;1251;140982;-67
2023/02/22 10:13:38;;;;;;;5.70;3.60;;;;;;;7.10;63.67;99646.52;440577;1252;141491;-67
2023/02/22 10:23:53;;;;;;;6.10;3.50;;;;;;;6.65;63.38;99643.42;448343;1252;141432;-66
2023/02/22 10:34:02;;;;;;;5.50;3.10;;;;;;;6.43;63.51;99648.09;450360;1249;141518;-66
2023/02/22 10:44:09;;;;;;;4.70;2.20;;;;;;;6.40;63.35;99646.13;450947;1250;141033;-67
2023/02/22 10:54:26;;;;;;;2.70;2.00;;;;;;;6.22;63.17;99641.52;447071;1251;141350;-68
2023/02/22 11:04:43;;;;;;;;;;;;;;;6.19;63.09;99642.88;438709;1253;140874;-67
2023/02/22 11:14:50;;;;;;;8.40;3.50;;;;;;;6.09;63.08;99649.23;443336;1250;127030;-67
2023/02/22 11:24:59;;;;;;;4.80;2.20;;;;;;;6.20;63.08;99644.40;446149;1249;145063;-67
2023/02/22 11:35:31;;;;;;;5.60;2.90;;;;;;;6.28;62.86;99639.52;450272;1251;142231;-66
2023/02/22 11:45:38;;;;;;;7.20;3.10;;;;;;;6.48;62.66;99641.05;449179;1251;141758;-66
2023/02/22 11:56:09;;;;;;;5.40;3.60;;;;;;;6.12;62.77;99636.92;450567;1250;211239;-67
2023/02/22 12:06:28;;;;;;;5.50;3.20;;;;;;;6.42;62.88;99638.89;450839;1249;140875;-67
2023/02/22 12:16:43;;;;;;;8.40;3.90;;;;;;;6.28;62.54;99641.46;449940;1250;142778;-67
2023/02/22 12:26:53;;;;;;;6.70;3.50;;;;;;;6.01;62.72;99644.73;450627;1251;141414;-66
2023/02/22 12:37:04;;;;;;;5.60;3.60;;;;;;;5.63;63.17;99648.23;449869;1251;141521;-67
2023/02/22 12:47:18;;;;;;;4.40;3.90;;;;;;;5.56;63.30;99650.64;444244;1251;140775;-67
2023/02/22 12:57:35;;;;;;;8.10;3.90;;;;;;;5.67;63.30;99657.46;450722;1249;141570;-67
2023/02/22 13:07:43;;;;;;;;;;;;;;;5.78;63.24;99659.94;450508;1250;208684;-67
2023/02/22 13:17:58;;;;;;;6.50;5.00;;;;;;;5.79;63.19;99661.83;451314;1250;126711;-65
2023/02/22 13:28:19;;;;;;;9.20;5.20;;;;;;;5.69;63.25;99662.41;450077;1249;141358;-66
2023/02/22 13:38:57;;;;;;;6.40;4.90;;;;;;;5.51;63.36;99658.63;450996;1251;141345;-67
2023/02/22 13:49:29;;;;;;;8.10;4.90;;;;;;;5.62;63.20;99660.09;450180;1249;159526;-66
2023/02/22 13:59:38;;;;;;;4.90;3.30;;;;;;;5.51;62.80;99660.21;450990;1249;141411;-66
2023/02/22 14:09:49;;;;;;;4.90;3.80;;;;;;;5.49;62.43;99661.50;450199;1251;161993;-66
2023/02/22 14:20:28;;;;;;;7.80;4.50;;;;;;;5.50;62.26;99667.02;451055;1248;140586;-66
2023/02/22 14:30:37;;;;;;;7.80;5.30;;;;;;;5.26;62.64;99667.67;445990;1249;140598;-66
2023/02/22 14:40:47;;;;;;;6.70;5.10;;;;;;;4.96;63.40;99670.92;450599;1249;207256;-66
2023/02/22 14:50:57;;;;;;;6.60;5.50;;;;;;;4.71;63.91;99672.59;450953;1249;193794;-66
2023/02/22 15:01:25;;;;;;;7.40;5.20;;;;;;;4.48;64.23;99676.71;450179;1249;141089;-67
2023/02/22 15:11:44;;;;;;;6.50;5.50;;;;;;;4.33;64.36;99679.73;450896;1249;142012;-68
2023/02/22 15:21:52;;;;;;;8.60;5.40;;;;;;;4.01;64.93;99681.19;450092;1249;142030;-66
2023/02/22 15:31:58;;;;;;;11.70;5.10;;;;;;;3.54;65.41;99687.64;447608;1249;142636;-67
2023/02/22 15:42:18;;;;;;;5.90;4.70;;;;;;;3.01;65.80;99688.27;434135;1252;142628;-68
2023/02/22 15:52:26;;;;;;;6.70;5.30;;;;;;;2.48;66.62;99688.82;433173;1250;141297;-67
2023/02/22 16:02:37;;;;;;;6.40;5.20;;;;;;;2.07;67.06;99698.95;450952;1249;141432;-67
2023/02/22 16:12:43;;;;;;;9.70;6.00;;;;;;;1.74;67.84;99702.73;450719;1249;167848;-67
2023/02/22 16:22:50;;;;;;;10.20;7.70;;;;;;;1.51;68.53;99715.58;447019;1249;142136;-66
2023/02/22 16:32:57;;;;;;;11.60;7.80;;;;;;;1.41;68.96;99726.16;451345;1249;144940;-67
2023/02/22 16:43:06;;;;;;;12.20;9.60;;;;;;;1.25;69.37;99741.38;450686;1249;145008;-67
2023/02/22 16:53:12;;;;;;;14.40;9.40;;;;;;;0.83;70.73;99752.27;451444;1249;141519;-67
2023/02/22 17:03:19;;;;;;;13.30;8.60;;;;;;;0.44;71.98;99760.49;451147;1249;143668;-67
2023/02/22 17:13:28;;;;;;;14.10;9.00;;;;;;;0.09;72.69;99763.56;447143;1249;142920;-67
2023/02/22 17:23:34;;;;;;;19.00;12.10;;;;;;;-0.23;73.39;99762.38;450576;1249;145878;-67
2023/02/22 17:33:40;;;;;;;16.90;10.00;;;;;;;-0.45;74.08;99761.88;449625;1249;143908;-67
2023/02/22 17:43:45;;;;;;;15.80;11.40;;;;;;;-0.61;74.67;99755.07;445735;1250;142209;-67
2023/02/22 17:53:51;;;;;;;18.50;11.10;;;;;;;-0.77;74.77;99754.60;450481;1249;142487;-67
2023/02/22 18:04:01;;;;;;;16.20;10.50;;;;;;;-0.89;74.85;99767.86;436361;1250;143521;-65
2023/02/22 18:14:09;;;;;;;18.20;12.30;;;;;;;-1.00;74.82;99774.36;445625;1249;141694;-67
2023/02/22 18:24:16;;;;;;;20.10;11.90;;;;;;;-1.09;74.75;99778.45;450987;1251;142409;-67
2023/02/22 18:34:23;;;;;;;15.00;9.80;;;;;;;-1.19;74.75;99788.18;450416;1249;143383;-67
2023/02/22 18:44:30;;;;;;;13.90;8.50;;;;;;;-1.17;74.65;99790.90;438760;1249;143000;-66
2023/02/22 18:54:37;;;;;;;13.40;9.50;;;;;;;-1.11;74.39;99789.98;444377;1249;145972;-66
2023/02/22 19:04:43;;;;;;;11.50;8.20;;;;;;;-1.08;74.28;99790.11;443479;1249;210071;-66
2023/02/22 19:14:48;;;;;;;;;;;;;;;-0.97;73.87;99799.60;451059;1248;142352;-66
2023/02/22 19:24:54;;;;;;;12.50;8.80;;;;;;;-0.88;73.71;99792.25;450530;1249;132362;-65
2023/02/22 19:35:05;;;;;;;15.90;9.40;;;;;;;-0.92;73.39;99794.36;449146;1249;142688;-65
2023/02/22 19:45:12;;;;;;;13.40;7.60;;;;;;;-0.96;73.13;99792.88;451087;1248;142400;-66
2023/02/22 19:55:18;;;;;;;12.50;8.50;;;;;;;-0.94;73.22;99801.10;450218;1249;142574;-66
2023/02/22 20:05:23;;;;;;;14.90;8.80;;;;;;;-0.93;73.15;99807.79;451102;1249;144094;-65
2023/02/22 20:15:30;;;;;;;16.00;9.70;;;;;;;-0.91;73.22;99807.59;441331;1248;141958;-66
2023/02/22 20:25:36;;;;;;;15.40;10.20;;;;;;;-0.89;73.44;99814.08;450191;1249;142550;-66
2023/02/22 20:35:42;;;;;;;12.90;9.60;;;;;;;-0.83;73.29;99811.45;451118;1249;143852;-66
2023/02/22 20:45:48;;;;;;;14.30;9.30;;;;;;;-0.81;73.19;99811.41;450471;1249;143448;-66
2023/02/22 20:55:56;;;;;;;12.00;8.40;;;;;;;-0.84;72.90;99815.05;451067;1249;143712;-65
2023/02/22 21:06:03;;;;;;;12.20;7.20;;;;;;;-0.89;72.48;99813.41;451128;1249;142845;-65
2023/02/22 21:16:15;;;;;;;11.20;6.60;;;;;;;-1.00;71.62;99808.22;444207;1249;142197;-65
2023/02/22 21:26:23;;;;;;;12.50;6.90;;;;;;;-1.12;71.63;99808.21;445628;1249;142437;-65
2023/02/22 21:36:30;;;;;;;9.40;6.90;;;;;;;-1.25;71.70;99804.92;441331;1249;143065;-65
2023/02/22 21:46:36;;;;;;;11.20;7.40;;;;;;;-1.41;71.84;99806.14;438905;1249;143089;-65
2023/02/22 21:56:43;;;;;;;6.60;5.30;;;;;;;-1.59;72.00;99805.46;434120;1252;143161;-71
2023/02/22 22:06:51;;;;;;;11.20;7.10;;;;;;;-1.76;72.19;99793.29;444544;1249;188144;-65
2023/02/22 22:16:59;;;;;;;11.40;7.20;;;;;;;-1.81;72.38;99795.75;450949;1249;142632;-66
2023/02/22 22:27:05;;;;;;;11.00;8.00;;;;;;;-1.79;72.35;99789.20;443889;1249;142653;-65
2023/02/22 22:37:12;;;;;;;9.80;7.00;;;;;;;-1.89;72.17;99784.48;450308;1248;142584;-65
2023/02/22 22:47:19;;;;;;;9.20;6.20;;;;;;;-2.00;72.11;99780.47;446500;1249;142533;-65
2023/02/22 22:57:25;;;;;;;9.10;6.90;;;;;;;-2.07;72.01;99770.59;437110;1250;142030;-64
2023/02/22 23:07:33;;;;;;;7.90;5.50;;;;;;;-2.14;72.36;99779.06;450215;1249;142273;-65
2023/02/22 23:17:41;;;;;;;9.40;6.20;;;;;;;-2.21;72.36;99783.93;450970;1248;142097;-66
2023/02/22 23:27:47;;;;;;;12.50;7.40;;;;;;;-2.22;72.60;99790.45;448151;1249;142627;-65
2023/02/22 23:37:53;;;;;;;8.40;5.70;;;;;;;-2.17;72.39;99789.20;441451;1249;144307;-64
2023/02/22 23:48:00;;;;;;;8.40;7.20;;;;;;;-2.18;72.48;99787.33;450973;1249;142443;-64
2023/02/22 23:58:06;;;;;;;9.60;6.80;;;;;;;-2.17;72.55;99779.77;450207;1249;142636;-64
